sensor_id;sensor_type;location;lat;lon;timestamp;P1;durP1;ratioP1;P2;durP2;ratioP2
5052;SDS011;2545;50.892;5.740;2023-04-25T00:02:25;10.47;;;4.80;;
5052;SDS011;2545;50.892;5.740;2023-04-25T00:04:50;11.27;;;4.73;;
5052;SDS011;2545;50.892;5.740;2023-04-25T00:07:16;12.03;;;4.80;;
5052;SDS011;2545;50.892;5.740;2023-04-25T00:09:42;7.83;;;4.27;;
5052;SDS011;2545;50.892;5.740;2023-04-25T00:12:08;16.53;;;4.80;;
5052;SDS011;2545;50.892;5.740;2023-04-25T00:14:33;10.27;;;4.63;;
5052;SDS011;2545;50.892;5.740;2023-04-25T00:16:59;14.93;;;5.03;;
5052;SDS011;2545;50.892;5.740;2023-04-25T00:19:24;11.00;;;4.70;;
5052;SDS011;2545;50.892;5.740;2023-04-25T00:21:51;20.90;;;5.67;;
5052;SDS011;2545;50.892;5.740;2023-04-25T00:24:17;10.80;;;4.30;;
5052;SDS011;2545;50.892;5.740;2023-04-25T00:26:42;16.73;;;4.57;;
5052;SDS011;2545;50.892;5.740;2023-04-25T00:29:07;13.77;;;4.70;;
5052;SDS011;2545;50.892;5.740;2023-04-25T00:31:33;15.53;;;5.00;;
5052;SDS011;2545;50.892;5.740;2023-04-25T00:33:58;18.23;;;4.97;;
5052;SDS011;2545;50.892;5.740;2023-04-25T00:36:23;16.83;;;5.10;;
5052;SDS011;2545;50.892;5.740;2023-04-25T00:38:49;9.47;;;4.90;;
5052;SDS011;2545;50.892;5.740;2023-04-25T00:41:14;20.37;;;5.30;;
5052;SDS011;2545;50.892;5.740;2023-04-25T00:43:42;18.17;;;4.90;;
5052;SDS011;2545;50.892;5.740;2023-04-25T00:46:09;11.60;;;4.30;;
5052;SDS011;2545;50.892;5.740;2023-04-25T00:48:35;12.83;;;4.70;;
5052;SDS011;2545;50.892;5.740;2023-04-25T00:51:00;8.77;;;4.73;;
5052;SDS011;2545;50.892;5.740;2023-04-25T00:53:27;16.87;;;5.47;;
5052;SDS011;2545;50.892;5.740;2023-04-25T00:55:53;13.90;;;5.60;;
5052;SDS011;2545;50.892;5.740;2023-04-25T00:58:20;14.57;;;5.03;;
5052;SDS011;2545;50.892;5.740;2023-04-25T01:00:46;19.03;;;5.80;;
5052;SDS011;2545;50.892;5.740;2023-04-25T01:03:13;15.27;;;4.20;;
5052;SDS011;2545;50.892;5.740;2023-04-25T01:05:42;25.53;;;5.80;;
5052;SDS011;2545;50.892;5.740;2023-04-25T01:08:08;16.97;;;4.37;;
5052;SDS011;2545;50.892;5.740;2023-04-25T01:10:34;14.33;;;5.53;;
5052;SDS011;2545;50.892;5.740;2023-04-25T01:13:00;18.17;;;5.70;;
5052;SDS011;2545;50.892;5.740;2023-04-25T01:15:25;21.43;;;6.67;;
5052;SDS011;2545;50.892;5.740;2023-04-25T01:17:51;19.30;;;6.10;;
5052;SDS011;2545;50.892;5.740;2023-04-25T01:20:18;18.90;;;5.03;;
5052;SDS011;2545;50.892;5.740;2023-04-25T01:22:47;24.53;;;5.70;;
5052;SDS011;2545;50.892;5.740;2023-04-25T01:25:12;15.40;;;5.80;;
5052;SDS011;2545;50.892;5.740;2023-04-25T01:27:38;18.33;;;4.60;;
5052;SDS011;2545;50.892;5.740;2023-04-25T01:30:04;21.23;;;5.60;;
5052;SDS011;2545;50.892;5.740;2023-04-25T01:32:30;11.63;;;5.30;;
5052;SDS011;2545;50.892;5.740;2023-04-25T01:35:03;34.07;;;5.80;;
5052;SDS011;2545;50.892;5.740;2023-04-25T01:37:35;22.43;;;6.37;;
5052;SDS011;2545;50.892;5.740;2023-04-25T01:40:01;12.03;;;5.20;;
5052;SDS011;2545;50.892;5.740;2023-04-25T01:42:27;14.27;;;5.00;;
5052;SDS011;2545;50.892;5.740;2023-04-25T01:44:52;12.97;;;5.10;;
5052;SDS011;2545;50.892;5.740;2023-04-25T01:47:18;13.13;;;5.00;;
5052;SDS011;2545;50.892;5.740;2023-04-25T01:49:43;15.63;;;5.30;;
5052;SDS011;2545;50.892;5.740;2023-04-25T01:52:08;17.23;;;5.20;;
5052;SDS011;2545;50.892;5.740;2023-04-25T01:54:34;9.93;;;5.43;;
5052;SDS011;2545;50.892;5.740;2023-04-25T01:56:59;16.63;;;4.70;;
5052;SDS011;2545;50.892;5.740;2023-04-25T01:59:25;20.23;;;5.70;;
5052;SDS011;2545;50.892;5.740;2023-04-25T02:01:50;23.27;;;5.20;;
5052;SDS011;2545;50.892;5.740;2023-04-25T02:04:16;17.87;;;5.07;;
5052;SDS011;2545;50.892;5.740;2023-04-25T02:06:41;19.20;;;5.87;;
5052;SDS011;2545;50.892;5.740;2023-04-25T02:09:06;20.50;;;5.50;;
5052;SDS011;2545;50.892;5.740;2023-04-25T02:11:32;16.03;;;4.80;;
5052;SDS011;2545;50.892;5.740;2023-04-25T02:13:57;19.27;;;5.37;;
5052;SDS011;2545;50.892;5.740;2023-04-25T02:16:22;9.93;;;4.70;;
5052;SDS011;2545;50.892;5.740;2023-04-25T02:18:48;15.47;;;5.20;;
5052;SDS011;2545;50.892;5.740;2023-04-25T02:21:13;12.47;;;4.40;;
5052;SDS011;2545;50.892;5.740;2023-04-25T02:23:39;14.57;;;6.20;;
5052;SDS011;2545;50.892;5.740;2023-04-25T02:26:04;16.57;;;5.40;;
5052;SDS011;2545;50.892;5.740;2023-04-25T02:28:29;12.53;;;4.73;;
5052;SDS011;2545;50.892;5.740;2023-04-25T02:30:55;17.40;;;5.17;;
5052;SDS011;2545;50.892;5.740;2023-04-25T02:33:20;21.27;;;5.37;;
5052;SDS011;2545;50.892;5.740;2023-04-25T02:35:46;13.60;;;4.17;;
5052;SDS011;2545;50.892;5.740;2023-04-25T02:38:12;15.00;;;4.57;;
5052;SDS011;2545;50.892;5.740;2023-04-25T02:40:37;15.33;;;7.13;;
5052;SDS011;2545;50.892;5.740;2023-04-25T02:43:02;15.37;;;4.90;;
5052;SDS011;2545;50.892;5.740;2023-04-25T02:45:28;21.60;;;5.63;;
5052;SDS011;2545;50.892;5.740;2023-04-25T02:47:53;15.10;;;5.13;;
5052;SDS011;2545;50.892;5.740;2023-04-25T02:50:18;7.90;;;4.33;;
5052;SDS011;2545;50.892;5.740;2023-04-25T02:52:44;17.17;;;5.80;;
5052;SDS011;2545;50.892;5.740;2023-04-25T02:55:10;15.77;;;5.20;;
5052;SDS011;2545;50.892;5.740;2023-04-25T02:57:35;20.27;;;6.10;;
5052;SDS011;2545;50.892;5.740;2023-04-25T03:00:01;16.10;;;5.77;;
5052;SDS011;2545;50.892;5.740;2023-04-25T03:02:26;18.90;;;5.20;;
5052;SDS011;2545;50.892;5.740;2023-04-25T03:04:51;26.23;;;5.40;;
5052;SDS011;2545;50.892;5.740;2023-04-25T03:07:17;19.80;;;6.07;;
5052;SDS011;2545;50.892;5.740;2023-04-25T03:09:42;14.63;;;4.77;;
5052;SDS011;2545;50.892;5.740;2023-04-25T03:12:08;16.77;;;4.93;;
5052;SDS011;2545;50.892;5.740;2023-04-25T03:14:33;25.03;;;5.47;;
5052;SDS011;2545;50.892;5.740;2023-04-25T03:16:58;14.40;;;5.87;;
5052;SDS011;2545;50.892;5.740;2023-04-25T03:19:23;23.57;;;6.07;;
5052;SDS011;2545;50.892;5.740;2023-04-25T03:21:49;13.43;;;4.83;;
5052;SDS011;2545;50.892;5.740;2023-04-25T03:24:14;15.20;;;5.50;;
5052;SDS011;2545;50.892;5.740;2023-04-25T03:26:40;17.07;;;4.63;;
5052;SDS011;2545;50.892;5.740;2023-04-25T03:29:05;11.87;;;5.77;;
5052;SDS011;2545;50.892;5.740;2023-04-25T03:31:30;17.50;;;6.13;;
5052;SDS011;2545;50.892;5.740;2023-04-25T03:33:56;13.43;;;5.10;;
5052;SDS011;2545;50.892;5.740;2023-04-25T03:36:21;20.83;;;5.63;;
5052;SDS011;2545;50.892;5.740;2023-04-25T03:38:46;13.67;;;5.03;;
5052;SDS011;2545;50.892;5.740;2023-04-25T03:41:13;41.87;;;6.50;;
5052;SDS011;2545;50.892;5.740;2023-04-25T03:43:38;24.00;;;6.23;;
5052;SDS011;2545;50.892;5.740;2023-04-25T03:46:04;29.27;;;5.67;;
5052;SDS011;2545;50.892;5.740;2023-04-25T03:48:29;25.20;;;6.03;;
5052;SDS011;2545;50.892;5.740;2023-04-25T03:50:55;18.50;;;5.60;;
5052;SDS011;2545;50.892;5.740;2023-04-25T03:53:20;18.53;;;5.50;;
5052;SDS011;2545;50.892;5.740;2023-04-25T03:55:45;12.63;;;4.80;;
5052;SDS011;2545;50.892;5.740;2023-04-25T03:58:11;37.00;;;6.80;;
5052;SDS011;2545;50.892;5.740;2023-04-25T04:00:36;20.30;;;5.20;;
5052;SDS011;2545;50.892;5.740;2023-04-25T04:03:02;15.93;;;5.80;;
5052;SDS011;2545;50.892;5.740;2023-04-25T04:05:27;20.90;;;6.00;;
5052;SDS011;2545;50.892;5.740;2023-04-25T04:07:53;23.57;;;5.93;;
5052;SDS011;2545;50.892;5.740;2023-04-25T04:10:18;14.03;;;4.97;;
5052;SDS011;2545;50.892;5.740;2023-04-25T04:12:44;15.33;;;6.33;;
5052;SDS011;2545;50.892;5.740;2023-04-25T04:15:09;20.23;;;5.97;;
5052;SDS011;2545;50.892;5.740;2023-04-25T04:17:35;24.83;;;6.80;;
5052;SDS011;2545;50.892;5.740;2023-04-25T04:20:00;17.40;;;5.87;;
5052;SDS011;2545;50.892;5.740;2023-04-25T04:22:26;24.23;;;6.00;;
5052;SDS011;2545;50.892;5.740;2023-04-25T04:24:51;16.50;;;5.60;;
5052;SDS011;2545;50.892;5.740;2023-04-25T04:27:17;16.53;;;5.40;;
5052;SDS011;2545;50.892;5.740;2023-04-25T04:29:44;18.53;;;7.37;;
5052;SDS011;2545;50.892;5.740;2023-04-25T04:32:10;18.90;;;6.50;;
5052;SDS011;2545;50.892;5.740;2023-04-25T04:34:35;15.80;;;5.23;;
5052;SDS011;2545;50.892;5.740;2023-04-25T04:37:01;20.80;;;5.53;;
5052;SDS011;2545;50.892;5.740;2023-04-25T04:39:26;22.70;;;5.40;;
5052;SDS011;2545;50.892;5.740;2023-04-25T04:41:51;20.33;;;6.40;;
5052;SDS011;2545;50.892;5.740;2023-04-25T04:44:17;15.60;;;5.87;;
5052;SDS011;2545;50.892;5.740;2023-04-25T04:46:42;17.00;;;6.57;;
5052;SDS011;2545;50.892;5.740;2023-04-25T04:49:09;13.63;;;5.93;;
5052;SDS011;2545;50.892;5.740;2023-04-25T04:51:35;25.50;;;6.40;;
5052;SDS011;2545;50.892;5.740;2023-04-25T04:54:01;24.13;;;6.63;;
5052;SDS011;2545;50.892;5.740;2023-04-25T04:56:28;16.53;;;6.10;;
5052;SDS011;2545;50.892;5.740;2023-04-25T04:58:55;19.83;;;5.90;;
5052;SDS011;2545;50.892;5.740;2023-04-25T05:01:21;13.70;;;6.53;;
5052;SDS011;2545;50.892;5.740;2023-04-25T05:03:47;15.33;;;5.50;;
5052;SDS011;2545;50.892;5.740;2023-04-25T05:06:12;17.87;;;6.90;;
5052;SDS011;2545;50.892;5.740;2023-04-25T05:08:37;22.03;;;6.77;;
5052;SDS011;2545;50.892;5.740;2023-04-25T05:11:03;20.47;;;6.27;;
5052;SDS011;2545;50.892;5.740;2023-04-25T05:13:28;17.70;;;6.93;;
5052;SDS011;2545;50.892;5.740;2023-04-25T05:15:53;10.80;;;5.73;;
5052;SDS011;2545;50.892;5.740;2023-04-25T05:18:19;21.50;;;6.83;;
5052;SDS011;2545;50.892;5.740;2023-04-25T05:20:44;17.83;;;5.93;;
5052;SDS011;2545;50.892;5.740;2023-04-25T05:23:09;21.83;;;6.60;;
5052;SDS011;2545;50.892;5.740;2023-04-25T05:25:35;24.13;;;7.10;;
5052;SDS011;2545;50.892;5.740;2023-04-25T05:28:00;17.97;;;6.10;;
5052;SDS011;2545;50.892;5.740;2023-04-25T05:30:25;21.90;;;6.60;;
5052;SDS011;2545;50.892;5.740;2023-04-25T05:32:51;27.10;;;6.40;;
5052;SDS011;2545;50.892;5.740;2023-04-25T05:35:16;21.33;;;5.97;;
5052;SDS011;2545;50.892;5.740;2023-04-25T05:37:41;27.67;;;6.87;;
5052;SDS011;2545;50.892;5.740;2023-04-25T05:40:07;17.20;;;5.47;;
5052;SDS011;2545;50.892;5.740;2023-04-25T05:42:33;11.77;;;5.83;;
5052;SDS011;2545;50.892;5.740;2023-04-25T05:44:59;15.53;;;6.13;;
5052;SDS011;2545;50.892;5.740;2023-04-25T05:47:25;29.27;;;6.87;;
5052;SDS011;2545;50.892;5.740;2023-04-25T05:49:51;24.70;;;6.40;;
5052;SDS011;2545;50.892;5.740;2023-04-25T05:52:16;20.57;;;5.90;;
5052;SDS011;2545;50.892;5.740;2023-04-25T05:54:41;24.87;;;5.83;;
5052;SDS011;2545;50.892;5.740;2023-04-25T05:57:07;9.70;;;5.20;;
5052;SDS011;2545;50.892;5.740;2023-04-25T05:59:32;32.47;;;5.20;;
5052;SDS011;2545;50.892;5.740;2023-04-25T06:01:57;20.50;;;6.60;;
5052;SDS011;2545;50.892;5.740;2023-04-25T06:04:23;22.60;;;5.83;;
5052;SDS011;2545;50.892;5.740;2023-04-25T06:06:48;24.43;;;6.07;;
5052;SDS011;2545;50.892;5.740;2023-04-25T06:09:13;21.03;;;5.30;;
5052;SDS011;2545;50.892;5.740;2023-04-25T06:11:39;17.97;;;5.80;;
5052;SDS011;2545;50.892;5.740;2023-04-25T06:14:05;17.30;;;6.13;;
5052;SDS011;2545;50.892;5.740;2023-04-25T06:16:31;12.93;;;5.07;;
5052;SDS011;2545;50.892;5.740;2023-04-25T06:18:56;24.70;;;5.30;;
5052;SDS011;2545;50.892;5.740;2023-04-25T06:21:21;14.13;;;4.10;;
5052;SDS011;2545;50.892;5.740;2023-04-25T06:23:47;17.37;;;5.80;;
5052;SDS011;2545;50.892;5.740;2023-04-25T06:26:12;23.80;;;6.60;;
5052;SDS011;2545;50.892;5.740;2023-04-25T06:28:37;31.00;;;6.77;;
5052;SDS011;2545;50.892;5.740;2023-04-25T06:31:02;26.03;;;6.10;;
5052;SDS011;2545;50.892;5.740;2023-04-25T06:33:28;23.97;;;5.87;;
5052;SDS011;2545;50.892;5.740;2023-04-25T06:35:53;22.00;;;5.80;;
5052;SDS011;2545;50.892;5.740;2023-04-25T06:38:18;20.50;;;5.93;;
5052;SDS011;2545;50.892;5.740;2023-04-25T06:40:44;13.77;;;6.17;;
5052;SDS011;2545;50.892;5.740;2023-04-25T06:43:09;19.43;;;5.30;;
5052;SDS011;2545;50.892;5.740;2023-04-25T06:45:35;16.17;;;6.67;;
5052;SDS011;2545;50.892;5.740;2023-04-25T06:48:00;30.57;;;6.27;;
5052;SDS011;2545;50.892;5.740;2023-04-25T06:50:26;17.80;;;5.67;;
5052;SDS011;2545;50.892;5.740;2023-04-25T06:52:51;18.50;;;5.47;;
5052;SDS011;2545;50.892;5.740;2023-04-25T06:55:17;22.60;;;6.47;;
5052;SDS011;2545;50.892;5.740;2023-04-25T06:57:42;21.83;;;5.47;;
5052;SDS011;2545;50.892;5.740;2023-04-25T07:00:07;15.33;;;4.97;;
5052;SDS011;2545;50.892;5.740;2023-04-25T07:02:34;24.07;;;5.50;;
5052;SDS011;2545;50.892;5.740;2023-04-25T07:05:00;18.20;;;4.53;;
5052;SDS011;2545;50.892;5.740;2023-04-25T07:07:28;16.47;;;4.73;;
5052;SDS011;2545;50.892;5.740;2023-04-25T07:09:55;13.90;;;4.47;;
5052;SDS011;2545;50.892;5.740;2023-04-25T07:12:20;11.10;;;4.63;;
5052;SDS011;2545;50.892;5.740;2023-04-25T07:14:45;22.53;;;5.20;;
5052;SDS011;2545;50.892;5.740;2023-04-25T07:17:11;18.30;;;4.53;;
5052;SDS011;2545;50.892;5.740;2023-04-25T07:19:36;20.40;;;5.70;;
5052;SDS011;2545;50.892;5.740;2023-04-25T07:22:03;26.97;;;4.83;;
5052;SDS011;2545;50.892;5.740;2023-04-25T07:24:29;17.60;;;4.37;;
5052;SDS011;2545;50.892;5.740;2023-04-25T07:26:54;15.57;;;4.40;;
5052;SDS011;2545;50.892;5.740;2023-04-25T07:29:19;13.63;;;5.80;;
5052;SDS011;2545;50.892;5.740;2023-04-25T07:31:44;12.13;;;3.70;;
5052;SDS011;2545;50.892;5.740;2023-04-25T07:34:10;13.47;;;3.33;;
5052;SDS011;2545;50.892;5.740;2023-04-25T07:36:35;18.50;;;4.37;;
5052;SDS011;2545;50.892;5.740;2023-04-25T07:39:01;16.27;;;3.67;;
5052;SDS011;2545;50.892;5.740;2023-04-25T07:41:26;16.33;;;3.60;;
5052;SDS011;2545;50.892;5.740;2023-04-25T07:43:51;16.33;;;4.57;;
5052;SDS011;2545;50.892;5.740;2023-04-25T07:46:16;9.97;;;4.10;;
5052;SDS011;2545;50.892;5.740;2023-04-25T07:48:42;9.33;;;3.13;;
5052;SDS011;2545;50.892;5.740;2023-04-25T07:51:07;16.17;;;4.00;;
5052;SDS011;2545;50.892;5.740;2023-04-25T07:53:32;20.33;;;3.50;;
5052;SDS011;2545;50.892;5.740;2023-04-25T07:55:59;17.53;;;3.50;;
5052;SDS011;2545;50.892;5.740;2023-04-25T07:58:25;10.93;;;3.60;;
5052;SDS011;2545;50.892;5.740;2023-04-25T08:00:50;15.57;;;4.83;;
5052;SDS011;2545;50.892;5.740;2023-04-25T08:03:15;18.87;;;5.07;;
5052;SDS011;2545;50.892;5.740;2023-04-25T08:05:41;14.63;;;3.73;;
5052;SDS011;2545;50.892;5.740;2023-04-25T08:08:06;10.63;;;3.30;;
5052;SDS011;2545;50.892;5.740;2023-04-25T08:10:32;17.00;;;4.17;;
5052;SDS011;2545;50.892;5.740;2023-04-25T08:12:58;16.80;;;3.60;;
5052;SDS011;2545;50.892;5.740;2023-04-25T08:15:24;12.47;;;3.47;;
5052;SDS011;2545;50.892;5.740;2023-04-25T08:17:50;9.63;;;3.10;;
5052;SDS011;2545;50.892;5.740;2023-04-25T08:20:15;11.10;;;3.57;;
5052;SDS011;2545;50.892;5.740;2023-04-25T08:22:42;8.03;;;3.40;;
5052;SDS011;2545;50.892;5.740;2023-04-25T08:25:07;14.10;;;4.43;;
5052;SDS011;2545;50.892;5.740;2023-04-25T08:27:33;11.27;;;3.50;;
5052;SDS011;2545;50.892;5.740;2023-04-25T08:29:58;8.80;;;3.53;;
5052;SDS011;2545;50.892;5.740;2023-04-25T08:32:23;16.50;;;4.50;;
5052;SDS011;2545;50.892;5.740;2023-04-25T08:34:49;12.17;;;5.10;;
5052;SDS011;2545;50.892;5.740;2023-04-25T08:37:16;13.80;;;3.80;;
5052;SDS011;2545;50.892;5.740;2023-04-25T08:39:41;14.03;;;3.90;;
5052;SDS011;2545;50.892;5.740;2023-04-25T08:42:07;7.63;;;3.17;;
5052;SDS011;2545;50.892;5.740;2023-04-25T08:44:33;10.83;;;3.40;;
5052;SDS011;2545;50.892;5.740;2023-04-25T08:46:59;12.00;;;4.43;;
5052;SDS011;2545;50.892;5.740;2023-04-25T08:49:26;8.20;;;2.90;;
5052;SDS011;2545;50.892;5.740;2023-04-25T08:51:52;7.83;;;2.90;;
5052;SDS011;2545;50.892;5.740;2023-04-25T08:54:24;19.33;;;4.07;;
5052;SDS011;2545;50.892;5.740;2023-04-25T08:56:54;16.40;;;3.77;;
5052;SDS011;2545;50.892;5.740;2023-04-25T08:59:21;7.60;;;3.10;;
5052;SDS011;2545;50.892;5.740;2023-04-25T09:01:47;8.07;;;2.87;;
5052;SDS011;2545;50.892;5.740;2023-04-25T09:04:14;10.90;;;3.17;;
5052;SDS011;2545;50.892;5.740;2023-04-25T09:06:39;12.97;;;2.73;;
5052;SDS011;2545;50.892;5.740;2023-04-25T09:09:05;11.93;;;2.60;;
5052;SDS011;2545;50.892;5.740;2023-04-25T09:11:32;6.50;;;3.30;;
5052;SDS011;2545;50.892;5.740;2023-04-25T09:14:12;9.20;;;3.53;;
5052;SDS011;2545;50.892;5.740;2023-04-25T09:19:25;6.37;;;3.57;;
5052;SDS011;2545;50.892;5.740;2023-04-25T09:21:56;7.70;;;3.23;;
5052;SDS011;2545;50.892;5.740;2023-04-25T09:24:38;11.80;;;3.10;;
5052;SDS011;2545;50.892;5.740;2023-04-25T09:27:06;11.40;;;2.97;;
5052;SDS011;2545;50.892;5.740;2023-04-25T09:29:34;12.00;;;3.47;;
5052;SDS011;2545;50.892;5.740;2023-04-25T09:32:18;17.90;;;3.07;;
5052;SDS011;2545;50.892;5.740;2023-04-25T09:34:46;9.37;;;3.77;;
5052;SDS011;2545;50.892;5.740;2023-04-25T09:37:20;6.93;;;2.50;;
5052;SDS011;2545;50.892;5.740;2023-04-25T09:39:48;19.97;;;3.87;;
5052;SDS011;2545;50.892;5.740;2023-04-25T09:42:15;15.50;;;3.10;;
5052;SDS011;2545;50.892;5.740;2023-04-25T09:44:42;7.47;;;2.87;;
5052;SDS011;2545;50.892;5.740;2023-04-25T09:47:11;10.37;;;2.80;;
5052;SDS011;2545;50.892;5.740;2023-04-25T09:49:39;14.90;;;3.07;;
5052;SDS011;2545;50.892;5.740;2023-04-25T09:52:07;9.20;;;3.43;;
5052;SDS011;2545;50.892;5.740;2023-04-25T09:54:32;5.80;;;2.43;;
5052;SDS011;2545;50.892;5.740;2023-04-25T09:56:57;11.33;;;2.70;;
5052;SDS011;2545;50.892;5.740;2023-04-25T09:59:50;7.23;;;2.53;;
5052;SDS011;2545;50.892;5.740;2023-04-25T10:02:18;12.50;;;4.10;;
5052;SDS011;2545;50.892;5.740;2023-04-25T10:04:46;9.60;;;2.33;;
5052;SDS011;2545;50.892;5.740;2023-04-25T10:07:13;14.40;;;3.37;;
5052;SDS011;2545;50.892;5.740;2023-04-25T10:09:39;6.73;;;2.97;;
5052;SDS011;2545;50.892;5.740;2023-04-25T10:12:05;9.63;;;2.80;;
5052;SDS011;2545;50.892;5.740;2023-04-25T10:14:32;8.60;;;3.50;;
5052;SDS011;2545;50.892;5.740;2023-04-25T10:16:58;7.23;;;2.80;;
5052;SDS011;2545;50.892;5.740;2023-04-25T10:19:25;8.47;;;2.70;;
5052;SDS011;2545;50.892;5.740;2023-04-25T10:21:56;4.57;;;2.40;;
5052;SDS011;2545;50.892;5.740;2023-04-25T10:24:28;5.57;;;2.50;;
5052;SDS011;2545;50.892;5.740;2023-04-25T10:26:53;13.73;;;3.50;;
5052;SDS011;2545;50.892;5.740;2023-04-25T10:29:23;13.93;;;3.30;;
5052;SDS011;2545;50.892;5.740;2023-04-25T10:31:49;11.67;;;3.23;;
5052;SDS011;2545;50.892;5.740;2023-04-25T10:34:15;19.07;;;2.87;;
5052;SDS011;2545;50.892;5.740;2023-04-25T10:36:41;8.13;;;2.70;;
5052;SDS011;2545;50.892;5.740;2023-04-25T10:39:07;12.37;;;3.17;;
5052;SDS011;2545;50.892;5.740;2023-04-25T10:44:32;7.17;;;3.10;;
5052;SDS011;2545;50.892;5.740;2023-04-25T10:46:59;7.10;;;2.70;;
5052;SDS011;2545;50.892;5.740;2023-04-25T10:49:36;14.13;;;3.57;;
5052;SDS011;2545;50.892;5.740;2023-04-25T10:52:12;6.77;;;2.50;;
5052;SDS011;2545;50.892;5.740;2023-04-25T10:54:42;7.13;;;3.00;;
5052;SDS011;2545;50.892;5.740;2023-04-25T10:57:38;8.13;;;2.70;;
5052;SDS011;2545;50.892;5.740;2023-04-25T11:02:43;7.90;;;2.63;;
5052;SDS011;2545;50.892;5.740;2023-04-25T11:07:55;14.50;;;2.50;;
5052;SDS011;2545;50.892;5.740;2023-04-25T11:10:27;11.40;;;2.80;;
5052;SDS011;2545;50.892;5.740;2023-04-25T11:12:54;7.30;;;2.50;;
5052;SDS011;2545;50.892;5.740;2023-04-25T11:15:20;7.67;;;2.73;;
5052;SDS011;2545;50.892;5.740;2023-04-25T11:17:45;4.20;;;2.10;;
5052;SDS011;2545;50.892;5.740;2023-04-25T11:20:11;7.37;;;2.80;;
5052;SDS011;2545;50.892;5.740;2023-04-25T11:22:40;6.90;;;2.27;;
5052;SDS011;2545;50.892;5.740;2023-04-25T11:25:06;12.40;;;2.80;;
5052;SDS011;2545;50.892;5.740;2023-04-25T11:27:54;6.67;;;2.60;;
5052;SDS011;2545;50.892;5.740;2023-04-25T11:30:22;7.50;;;2.40;;
5052;SDS011;2545;50.892;5.740;2023-04-25T11:32:48;8.70;;;2.37;;
5052;SDS011;2545;50.892;5.740;2023-04-25T11:35:14;9.80;;;3.07;;
5052;SDS011;2545;50.892;5.740;2023-04-25T11:37:40;15.17;;;2.70;;
5052;SDS011;2545;50.892;5.740;2023-04-25T11:40:06;5.43;;;3.10;;
5052;SDS011;2545;50.892;5.740;2023-04-25T11:42:32;8.03;;;2.10;;
5052;SDS011;2545;50.892;5.740;2023-04-25T11:45:01;10.03;;;3.00;;
5052;SDS011;2545;50.892;5.740;2023-04-25T11:47:29;9.70;;;2.63;;
5052;SDS011;2545;50.892;5.740;2023-04-25T11:49:55;4.80;;;1.97;;
5052;SDS011;2545;50.892;5.740;2023-04-25T11:52:20;7.40;;;2.50;;
5052;SDS011;2545;50.892;5.740;2023-04-25T11:54:46;8.83;;;2.43;;
5052;SDS011;2545;50.892;5.740;2023-04-25T11:57:11;6.70;;;2.00;;
5052;SDS011;2545;50.892;5.740;2023-04-25T11:59:36;6.63;;;2.10;;
5052;SDS011;2545;50.892;5.740;2023-04-25T12:02:02;5.73;;;2.03;;
5052;SDS011;2545;50.892;5.740;2023-04-25T12:04:29;7.90;;;2.33;;
5052;SDS011;2545;50.892;5.740;2023-04-25T12:06:55;16.63;;;2.70;;
5052;SDS011;2545;50.892;5.740;2023-04-25T12:09:28;10.73;;;2.63;;
5052;SDS011;2545;50.892;5.740;2023-04-25T12:11:55;9.23;;;2.57;;
5052;SDS011;2545;50.892;5.740;2023-04-25T12:14:24;4.73;;;2.13;;
5052;SDS011;2545;50.892;5.740;2023-04-25T12:16:52;6.60;;;2.13;;
5052;SDS011;2545;50.892;5.740;2023-04-25T12:19:19;11.77;;;2.73;;
5052;SDS011;2545;50.892;5.740;2023-04-25T12:21:45;5.80;;;2.10;;
5052;SDS011;2545;50.892;5.740;2023-04-25T12:26:47;11.57;;;2.80;;
5052;SDS011;2545;50.892;5.740;2023-04-25T12:29:27;8.03;;;2.07;;
5052;SDS011;2545;50.892;5.740;2023-04-25T12:31:54;5.77;;;2.73;;
5052;SDS011;2545;50.892;5.740;2023-04-25T12:34:21;6.57;;;2.70;;
5052;SDS011;2545;50.892;5.740;2023-04-25T12:36:47;7.27;;;2.23;;
5052;SDS011;2545;50.892;5.740;2023-04-25T12:39:20;9.77;;;2.67;;
5052;SDS011;2545;50.892;5.740;2023-04-25T12:41:47;6.77;;;3.00;;
5052;SDS011;2545;50.892;5.740;2023-04-25T12:44:13;12.10;;;1.93;;
5052;SDS011;2545;50.892;5.740;2023-04-25T12:46:39;8.70;;;2.93;;
5052;SDS011;2545;50.892;5.740;2023-04-25T12:49:06;8.80;;;2.57;;
5052;SDS011;2545;50.892;5.740;2023-04-25T12:51:32;6.10;;;2.30;;
5052;SDS011;2545;50.892;5.740;2023-04-25T12:53:58;4.43;;;2.23;;
5052;SDS011;2545;50.892;5.740;2023-04-25T12:56:25;4.73;;;2.37;;
5052;SDS011;2545;50.892;5.740;2023-04-25T12:58:51;9.30;;;3.00;;
5052;SDS011;2545;50.892;5.740;2023-04-25T13:01:17;7.23;;;2.37;;
5052;SDS011;2545;50.892;5.740;2023-04-25T13:03:42;7.43;;;2.37;;
5052;SDS011;2545;50.892;5.740;2023-04-25T13:06:08;8.83;;;2.70;;
5052;SDS011;2545;50.892;5.740;2023-04-25T13:08:33;10.00;;;2.10;;
5052;SDS011;2545;50.892;5.740;2023-04-25T13:10:59;7.07;;;2.40;;
5052;SDS011;2545;50.892;5.740;2023-04-25T13:13:25;10.50;;;2.50;;
5052;SDS011;2545;50.892;5.740;2023-04-25T13:15:52;8.93;;;2.37;;
5052;SDS011;2545;50.892;5.740;2023-04-25T13:18:17;11.10;;;2.53;;
5052;SDS011;2545;50.892;5.740;2023-04-25T13:20:43;4.53;;;2.27;;
5052;SDS011;2545;50.892;5.740;2023-04-25T13:23:09;2.90;;;1.90;;
5052;SDS011;2545;50.892;5.740;2023-04-25T13:25:34;6.57;;;2.20;;
5052;SDS011;2545;50.892;5.740;2023-04-25T13:28:00;5.93;;;2.10;;
5052;SDS011;2545;50.892;5.740;2023-04-25T13:30:25;5.47;;;2.20;;
5052;SDS011;2545;50.892;5.740;2023-04-25T13:32:50;3.50;;;1.90;;
5052;SDS011;2545;50.892;5.740;2023-04-25T13:35:16;4.80;;;1.87;;
5052;SDS011;2545;50.892;5.740;2023-04-25T13:37:42;5.53;;;2.40;;
5052;SDS011;2545;50.892;5.740;2023-04-25T13:40:08;4.73;;;2.27;;
5052;SDS011;2545;50.892;5.740;2023-04-25T13:42:36;7.23;;;2.63;;
5052;SDS011;2545;50.892;5.740;2023-04-25T13:45:02;5.10;;;1.93;;
5052;SDS011;2545;50.892;5.740;2023-04-25T13:47:28;4.80;;;1.83;;
5052;SDS011;2545;50.892;5.740;2023-04-25T13:49:55;3.07;;;1.73;;
5052;SDS011;2545;50.892;5.740;2023-04-25T13:52:20;5.37;;;2.20;;
5052;SDS011;2545;50.892;5.740;2023-04-25T13:54:45;9.33;;;2.10;;
5052;SDS011;2545;50.892;5.740;2023-04-25T13:57:11;6.67;;;2.63;;
5052;SDS011;2545;50.892;5.740;2023-04-25T13:59:37;9.27;;;2.67;;
5052;SDS011;2545;50.892;5.740;2023-04-25T14:02:02;5.43;;;2.30;;
5052;SDS011;2545;50.892;5.740;2023-04-25T14:04:28;11.37;;;2.80;;
5052;SDS011;2545;50.892;5.740;2023-04-25T14:06:53;4.33;;;2.47;;
5052;SDS011;2545;50.892;5.740;2023-04-25T14:09:19;12.57;;;2.70;;
5052;SDS011;2545;50.892;5.740;2023-04-25T14:11:45;8.40;;;2.37;;
5052;SDS011;2545;50.892;5.740;2023-04-25T14:14:11;4.70;;;2.00;;
5052;SDS011;2545;50.892;5.740;2023-04-25T14:16:37;10.67;;;2.10;;
5052;SDS011;2545;50.892;5.740;2023-04-25T14:19:03;12.33;;;2.10;;
5052;SDS011;2545;50.892;5.740;2023-04-25T14:21:28;10.63;;;2.67;;
5052;SDS011;2545;50.892;5.740;2023-04-25T14:23:54;7.80;;;2.33;;
5052;SDS011;2545;50.892;5.740;2023-04-25T14:26:20;18.53;;;2.63;;
5052;SDS011;2545;50.892;5.740;2023-04-25T14:28:45;11.23;;;3.03;;
5052;SDS011;2545;50.892;5.740;2023-04-25T14:31:10;4.53;;;2.33;;
5052;SDS011;2545;50.892;5.740;2023-04-25T14:33:36;12.40;;;3.80;;
5052;SDS011;2545;50.892;5.740;2023-04-25T14:36:04;10.20;;;1.80;;
5052;SDS011;2545;50.892;5.740;2023-04-25T14:38:30;4.73;;;2.23;;
5052;SDS011;2545;50.892;5.740;2023-04-25T14:40:55;6.10;;;1.80;;
5052;SDS011;2545;50.892;5.740;2023-04-25T14:43:20;7.60;;;1.93;;
5052;SDS011;2545;50.892;5.740;2023-04-25T14:45:46;6.00;;;2.53;;
5052;SDS011;2545;50.892;5.740;2023-04-25T14:48:11;7.63;;;2.60;;
5052;SDS011;2545;50.892;5.740;2023-04-25T14:50:36;4.90;;;2.10;;
5052;SDS011;2545;50.892;5.740;2023-04-25T14:53:02;7.03;;;2.17;;
5052;SDS011;2545;50.892;5.740;2023-04-25T14:55:27;7.90;;;2.00;;
5052;SDS011;2545;50.892;5.740;2023-04-25T14:57:53;7.80;;;2.30;;
5052;SDS011;2545;50.892;5.740;2023-04-25T15:00:19;4.27;;;2.10;;
5052;SDS011;2545;50.892;5.740;2023-04-25T15:02:45;6.40;;;2.00;;
5052;SDS011;2545;50.892;5.740;2023-04-25T15:05:11;6.17;;;1.90;;
5052;SDS011;2545;50.892;5.740;2023-04-25T15:07:38;7.87;;;3.53;;
5052;SDS011;2545;50.892;5.740;2023-04-25T15:10:05;5.53;;;2.57;;
5052;SDS011;2545;50.892;5.740;2023-04-25T15:12:35;5.57;;;1.90;;
5052;SDS011;2545;50.892;5.740;2023-04-25T15:15:01;7.77;;;1.50;;